sensor_id;sensor_type;location;lat;lon;timestamp;P1;durP1;ratioP1;P2;durP2;ratioP2
16612;SDS011;8419;52.358;9.752;2022-10-22T00:01:55;13.88;;;5.85;;
16612;SDS011;8419;52.358;9.752;2022-10-22T00:04:41;9.57;;;5.50;;
16612;SDS011;8419;52.358;9.752;2022-10-22T00:07:26;9.38;;;5.72;;
16612;SDS011;8419;52.358;9.752;2022-10-22T00:10:12;9.05;;;5.80;;
16612;SDS011;8419;52.358;9.752;2022-10-22T00:12:58;7.90;;;5.65;;
16612;SDS011;8419;52.358;9.752;2022-10-22T00:15:44;11.60;;;6.22;;
16612;SDS011;8419;52.358;9.752;2022-10-22T00:18:30;9.43;;;6.07;;
16612;SDS011;8419;52.358;9.752;2022-10-22T00:21:15;10.45;;;6.20;;
16612;SDS011;8419;52.358;9.752;2022-10-22T00:24:02;8.40;;;5.97;;
16612;SDS011;8419;52.358;9.752;2022-10-22T00:26:48;13.15;;;6.00;;
16612;SDS011;8419;52.358;9.752;2022-10-22T00:29:34;8.82;;;5.75;;
16612;SDS011;8419;52.358;9.752;2022-10-22T00:32:20;12.05;;;6.10;;
16612;SDS011;8419;52.358;9.752;2022-10-22T00:35:06;9.27;;;5.90;;
16612;SDS011;8419;52.358;9.752;2022-10-22T00:37:52;11.38;;;5.82;;
16612;SDS011;8419;52.358;9.752;2022-10-22T00:40:37;10.43;;;5.60;;
16612;SDS011;8419;52.358;9.752;2022-10-22T00:43:25;11.02;;;5.55;;
16612;SDS011;8419;52.358;9.752;2022-10-22T00:46:11;7.57;;;5.30;;
16612;SDS011;8419;52.358;9.752;2022-10-22T00:48:58;9.63;;;5.93;;
16612;SDS011;8419;52.358;9.752;2022-10-22T00:51:46;8.32;;;5.72;;
16612;SDS011;8419;52.358;9.752;2022-10-22T00:54:32;9.73;;;5.55;;
16612;SDS011;8419;52.358;9.752;2022-10-22T00:57:18;7.60;;;5.37;;
16612;SDS011;8419;52.358;9.752;2022-10-22T01:00:05;10.00;;;6.43;;
16612;SDS011;8419;52.358;9.752;2022-10-22T01:02:53;13.40;;;5.90;;
16612;SDS011;8419;52.358;9.752;2022-10-22T01:05:42;8.43;;;5.55;;
16612;SDS011;8419;52.358;9.752;2022-10-22T01:08:32;10.02;;;5.45;;
16612;SDS011;8419;52.358;9.752;2022-10-22T01:11:26;8.00;;;5.28;;
16612;SDS011;8419;52.358;9.752;2022-10-22T01:14:24;8.13;;;5.18;;
16612;SDS011;8419;52.358;9.752;2022-10-22T01:17:22;9.10;;;4.95;;
16612;SDS011;8419;52.358;9.752;2022-10-22T01:20:18;9.30;;;6.18;;
16612;SDS011;8419;52.358;9.752;2022-10-22T01:23:21;9.40;;;5.75;;
16612;SDS011;8419;52.358;9.752;2022-10-22T01:29:47;11.88;;;6.03;;
16612;SDS011;8419;52.358;9.752;2022-10-22T01:32:38;9.15;;;6.12;;
16612;SDS011;8419;52.358;9.752;2022-10-22T01:35:29;12.43;;;5.90;;
16612;SDS011;8419;52.358;9.752;2022-10-22T01:38:20;10.70;;;5.93;;
16612;SDS011;8419;52.358;9.752;2022-10-22T01:41:08;10.00;;;5.62;;
16612;SDS011;8419;52.358;9.752;2022-10-22T01:43:54;9.90;;;5.90;;
16612;SDS011;8419;52.358;9.752;2022-10-22T01:46:40;9.93;;;6.22;;
16612;SDS011;8419;52.358;9.752;2022-10-22T01:49:26;10.38;;;6.50;;
16612;SDS011;8419;52.358;9.752;2022-10-22T01:52:23;11.73;;;6.50;;
16612;SDS011;8419;52.358;9.752;2022-10-22T01:55:20;11.12;;;5.95;;
16612;SDS011;8419;52.358;9.752;2022-10-22T01:58:16;12.37;;;6.53;;
16612;SDS011;8419;52.358;9.752;2022-10-22T02:01:14;14.07;;;6.32;;
16612;SDS011;8419;52.358;9.752;2022-10-22T02:04:10;12.07;;;6.97;;
16612;SDS011;8419;52.358;9.752;2022-10-22T02:07:02;11.27;;;6.50;;
16612;SDS011;8419;52.358;9.752;2022-10-22T02:09:51;8.77;;;5.72;;
16612;SDS011;8419;52.358;9.752;2022-10-22T02:12:40;9.32;;;5.53;;
16612;SDS011;8419;52.358;9.752;2022-10-22T02:15:29;11.12;;;6.30;;
16612;SDS011;8419;52.358;9.752;2022-10-22T02:18:21;8.63;;;5.35;;
16612;SDS011;8419;52.358;9.752;2022-10-22T02:21:12;9.00;;;6.28;;
16612;SDS011;8419;52.358;9.752;2022-10-22T02:23:58;10.73;;;6.53;;
16612;SDS011;8419;52.358;9.752;2022-10-22T02:26:45;9.88;;;6.37;;
16612;SDS011;8419;52.358;9.752;2022-10-22T02:29:38;10.23;;;6.25;;
16612;SDS011;8419;52.358;9.752;2022-10-22T02:32:29;10.45;;;6.25;;
16612;SDS011;8419;52.358;9.752;2022-10-22T02:35:18;11.30;;;6.65;;
16612;SDS011;8419;52.358;9.752;2022-10-22T02:38:06;11.48;;;6.28;;
16612;SDS011;8419;52.358;9.752;2022-10-22T02:40:53;7.82;;;4.90;;
16612;SDS011;8419;52.358;9.752;2022-10-22T02:43:40;9.73;;;5.32;;
16612;SDS011;8419;52.358;9.752;2022-10-22T02:46:27;6.87;;;5.20;;
16612;SDS011;8419;52.358;9.752;2022-10-22T02:49:13;9.20;;;5.75;;
16612;SDS011;8419;52.358;9.752;2022-10-22T02:51:59;7.80;;;5.37;;
16612;SDS011;8419;52.358;9.752;2022-10-22T02:54:44;9.00;;;6.18;;
16612;SDS011;8419;52.358;9.752;2022-10-22T02:57:30;13.00;;;5.85;;
16612;SDS011;8419;52.358;9.752;2022-10-22T03:00:16;10.73;;;5.50;;
16612;SDS011;8419;52.358;9.752;2022-10-22T03:03:02;9.40;;;5.43;;
16612;SDS011;8419;52.358;9.752;2022-10-22T03:05:49;8.07;;;5.25;;
16612;SDS011;8419;52.358;9.752;2022-10-22T03:08:35;5.85;;;4.85;;
16612;SDS011;8419;52.358;9.752;2022-10-22T03:11:20;9.13;;;4.95;;
16612;SDS011;8419;52.358;9.752;2022-10-22T03:14:06;7.12;;;4.95;;
16612;SDS011;8419;52.358;9.752;2022-10-22T03:16:52;8.07;;;5.47;;
16612;SDS011;8419;52.358;9.752;2022-10-22T03:19:37;9.70;;;5.25;;
16612;SDS011;8419;52.358;9.752;2022-10-22T03:22:24;9.15;;;5.12;;
16612;SDS011;8419;52.358;9.752;2022-10-22T03:25:13;10.43;;;5.12;;
16612;SDS011;8419;52.358;9.752;2022-10-22T03:28:04;7.12;;;5.00;;
16612;SDS011;8419;52.358;9.752;2022-10-22T03:30:52;8.77;;;5.22;;
16612;SDS011;8419;52.358;9.752;2022-10-22T03:33:38;8.88;;;5.32;;
16612;SDS011;8419;52.358;9.752;2022-10-22T03:36:24;6.62;;;4.87;;
16612;SDS011;8419;52.358;9.752;2022-10-22T03:39:11;6.72;;;4.85;;
16612;SDS011;8419;52.358;9.752;2022-10-22T03:42:00;6.80;;;4.65;;
16612;SDS011;8419;52.358;9.752;2022-10-22T03:44:46;8.43;;;4.65;;
16612;SDS011;8419;52.358;9.752;2022-10-22T03:47:32;9.82;;;5.20;;
16612;SDS011;8419;52.358;9.752;2022-10-22T03:50:17;6.43;;;5.07;;
16612;SDS011;8419;52.358;9.752;2022-10-22T03:53:03;12.57;;;5.55;;
16612;SDS011;8419;52.358;9.752;2022-10-22T03:55:50;7.55;;;4.43;;
16612;SDS011;8419;52.358;9.752;2022-10-22T03:58:35;7.22;;;4.35;;
16612;SDS011;8419;52.358;9.752;2022-10-22T04:01:23;11.00;;;5.40;;
16612;SDS011;8419;52.358;9.752;2022-10-22T04:04:09;6.32;;;4.85;;
16612;SDS011;8419;52.358;9.752;2022-10-22T04:06:55;11.55;;;4.68;;
16612;SDS011;8419;52.358;9.752;2022-10-22T04:09:41;8.73;;;4.80;;
16612;SDS011;8419;52.358;9.752;2022-10-22T04:12:26;10.73;;;4.70;;
16612;SDS011;8419;52.358;9.752;2022-10-22T04:15:12;6.05;;;4.60;;
16612;SDS011;8419;52.358;9.752;2022-10-22T04:17:58;9.40;;;5.97;;
16612;SDS011;8419;52.358;9.752;2022-10-22T04:20:43;8.10;;;5.45;;
16612;SDS011;8419;52.358;9.752;2022-10-22T04:23:29;8.93;;;5.43;;
16612;SDS011;8419;52.358;9.752;2022-10-22T04:26:14;8.85;;;5.10;;
16612;SDS011;8419;52.358;9.752;2022-10-22T04:29:01;6.87;;;4.68;;
16612;SDS011;8419;52.358;9.752;2022-10-22T04:31:47;8.15;;;4.80;;
16612;SDS011;8419;52.358;9.752;2022-10-22T04:34:32;8.32;;;5.53;;
16612;SDS011;8419;52.358;9.752;2022-10-22T04:37:18;9.98;;;5.12;;
16612;SDS011;8419;52.358;9.752;2022-10-22T04:40:05;7.87;;;5.53;;
16612;SDS011;8419;52.358;9.752;2022-10-22T04:42:52;7.78;;;4.68;;
16612;SDS011;8419;52.358;9.752;2022-10-22T04:45:38;7.72;;;5.00;;
16612;SDS011;8419;52.358;9.752;2022-10-22T04:48:24;8.18;;;5.32;;
16612;SDS011;8419;52.358;9.752;2022-10-22T04:51:10;9.80;;;5.50;;
16612;SDS011;8419;52.358;9.752;2022-10-22T04:53:58;7.18;;;5.12;;
16612;SDS011;8419;52.358;9.752;2022-10-22T04:56:43;9.82;;;5.22;;
16612;SDS011;8419;52.358;9.752;2022-10-22T04:59:29;9.27;;;5.72;;
16612;SDS011;8419;52.358;9.752;2022-10-22T05:02:15;7.45;;;5.35;;
16612;SDS011;8419;52.358;9.752;2022-10-22T05:05:01;9.20;;;5.90;;
16612;SDS011;8419;52.358;9.752;2022-10-22T05:07:47;7.47;;;5.80;;
16612;SDS011;8419;52.358;9.752;2022-10-22T05:10:34;10.27;;;6.85;;
16612;SDS011;8419;52.358;9.752;2022-10-22T05:13:20;6.75;;;5.10;;
16612;SDS011;8419;52.358;9.752;2022-10-22T05:16:06;7.85;;;5.18;;
16612;SDS011;8419;52.358;9.752;2022-10-22T05:18:52;9.48;;;5.30;;
16612;SDS011;8419;52.358;9.752;2022-10-22T05:21:38;7.20;;;5.03;;
16612;SDS011;8419;52.358;9.752;2022-10-22T05:24:24;9.35;;;6.12;;
16612;SDS011;8419;52.358;9.752;2022-10-22T05:27:11;9.80;;;5.80;;
16612;SDS011;8419;52.358;9.752;2022-10-22T05:29:56;11.57;;;5.35;;
16612;SDS011;8419;52.358;9.752;2022-10-22T05:32:42;8.70;;;5.57;;
16612;SDS011;8419;52.358;9.752;2022-10-22T05:35:28;8.35;;;5.87;;
16612;SDS011;8419;52.358;9.752;2022-10-22T05:38:14;10.70;;;5.35;;
16612;SDS011;8419;52.358;9.752;2022-10-22T05:40:59;9.25;;;5.70;;
16612;SDS011;8419;52.358;9.752;2022-10-22T05:43:47;9.40;;;6.28;;
16612;SDS011;8419;52.358;9.752;2022-10-22T05:46:34;11.35;;;6.85;;
16612;SDS011;8419;52.358;9.752;2022-10-22T05:49:21;8.70;;;6.10;;
16612;SDS011;8419;52.358;9.752;2022-10-22T05:52:06;10.80;;;6.20;;
16612;SDS011;8419;52.358;9.752;2022-10-22T05:54:52;9.02;;;6.75;;
16612;SDS011;8419;52.358;9.752;2022-10-22T05:57:38;12.43;;;6.47;;
16612;SDS011;8419;52.358;9.752;2022-10-22T06:00:24;11.55;;;6.62;;
16612;SDS011;8419;52.358;9.752;2022-10-22T06:03:10;10.65;;;6.40;;
16612;SDS011;8419;52.358;9.752;2022-10-22T06:05:55;8.90;;;5.97;;
16612;SDS011;8419;52.358;9.752;2022-10-22T06:08:43;10.75;;;6.53;;
16612;SDS011;8419;52.358;9.752;2022-10-22T06:11:29;10.75;;;6.55;;
16612;SDS011;8419;52.358;9.752;2022-10-22T06:14:16;13.30;;;6.65;;
16612;SDS011;8419;52.358;9.752;2022-10-22T06:17:03;13.02;;;6.57;;
16612;SDS011;8419;52.358;9.752;2022-10-22T06:19:51;12.02;;;5.95;;
16612;SDS011;8419;52.358;9.752;2022-10-22T06:22:37;13.45;;;7.28;;
16612;SDS011;8419;52.358;9.752;2022-10-22T06:25:23;11.43;;;6.62;;
16612;SDS011;8419;52.358;9.752;2022-10-22T06:28:09;10.93;;;7.30;;
16612;SDS011;8419;52.358;9.752;2022-10-22T06:30:56;12.30;;;6.62;;
16612;SDS011;8419;52.358;9.752;2022-10-22T06:33:42;11.18;;;7.68;;
16612;SDS011;8419;52.358;9.752;2022-10-22T06:36:28;12.65;;;7.45;;
16612;SDS011;8419;52.358;9.752;2022-10-22T06:39:14;11.12;;;6.43;;
16612;SDS011;8419;52.358;9.752;2022-10-22T06:42:01;10.90;;;6.95;;
16612;SDS011;8419;52.358;9.752;2022-10-22T06:44:47;10.90;;;6.82;;
16612;SDS011;8419;52.358;9.752;2022-10-22T06:47:32;12.00;;;6.87;;
16612;SDS011;8419;52.358;9.752;2022-10-22T06:50:18;8.85;;;6.37;;
16612;SDS011;8419;52.358;9.752;2022-10-22T06:53:03;11.40;;;6.68;;
16612;SDS011;8419;52.358;9.752;2022-10-22T06:55:49;10.25;;;6.80;;
16612;SDS011;8419;52.358;9.752;2022-10-22T06:58:35;10.30;;;6.32;;
16612;SDS011;8419;52.358;9.752;2022-10-22T07:01:21;8.32;;;5.28;;
16612;SDS011;8419;52.358;9.752;2022-10-22T07:04:10;9.75;;;6.05;;
16612;SDS011;8419;52.358;9.752;2022-10-22T07:06:56;9.27;;;5.95;;
16612;SDS011;8419;52.358;9.752;2022-10-22T07:09:41;6.97;;;5.53;;
16612;SDS011;8419;52.358;9.752;2022-10-22T07:12:28;10.55;;;5.60;;
16612;SDS011;8419;52.358;9.752;2022-10-22T07:15:14;10.68;;;5.93;;
16612;SDS011;8419;52.358;9.752;2022-10-22T07:18:00;10.18;;;5.68;;
16612;SDS011;8419;52.358;9.752;2022-10-22T07:20:47;12.93;;;6.25;;
16612;SDS011;8419;52.358;9.752;2022-10-22T07:23:34;11.38;;;6.57;;
16612;SDS011;8419;52.358;9.752;2022-10-22T07:26:19;9.48;;;6.25;;
16612;SDS011;8419;52.358;9.752;2022-10-22T07:29:05;13.25;;;5.82;;
16612;SDS011;8419;52.358;9.752;2022-10-22T07:31:51;7.97;;;5.87;;
16612;SDS011;8419;52.358;9.752;2022-10-22T07:34:36;7.82;;;5.40;;
16612;SDS011;8419;52.358;9.752;2022-10-22T07:37:22;8.05;;;6.00;;
16612;SDS011;8419;52.358;9.752;2022-10-22T07:40:09;6.68;;;5.05;;
16612;SDS011;8419;52.358;9.752;2022-10-22T07:42:55;10.77;;;5.93;;
16612;SDS011;8419;52.358;9.752;2022-10-22T07:45:40;8.48;;;5.45;;
16612;SDS011;8419;52.358;9.752;2022-10-22T07:48:25;9.02;;;5.70;;
16612;SDS011;8419;52.358;9.752;2022-10-22T07:51:11;7.68;;;5.25;;
16612;SDS011;8419;52.358;9.752;2022-10-22T07:53:57;9.10;;;5.60;;
16612;SDS011;8419;52.358;9.752;2022-10-22T07:56:46;8.82;;;5.78;;
16612;SDS011;8419;52.358;9.752;2022-10-22T07:59:32;9.65;;;4.20;;
16612;SDS011;8419;52.358;9.752;2022-10-22T08:02:17;9.38;;;5.22;;
16612;SDS011;8419;52.358;9.752;2022-10-22T08:05:06;6.15;;;5.05;;
16612;SDS011;8419;52.358;9.752;2022-10-22T08:07:52;6.50;;;4.85;;
16612;SDS011;8419;52.358;9.752;2022-10-22T08:10:41;6.57;;;4.18;;
16612;SDS011;8419;52.358;9.752;2022-10-22T08:13:29;9.20;;;5.00;;
16612;SDS011;8419;52.358;9.752;2022-10-22T08:16:16;6.68;;;4.82;;
16612;SDS011;8419;52.358;9.752;2022-10-22T08:19:01;5.75;;;4.80;;
16612;SDS011;8419;52.358;9.752;2022-10-22T08:21:48;5.75;;;4.53;;
16612;SDS011;8419;52.358;9.752;2022-10-22T08:24:34;5.78;;;4.30;;
16612;SDS011;8419;52.358;9.752;2022-10-22T08:27:20;6.25;;;4.37;;
16612;SDS011;8419;52.358;9.752;2022-10-22T08:30:07;5.70;;;4.60;;
16612;SDS011;8419;52.358;9.752;2022-10-22T08:32:55;6.30;;;4.65;;
16612;SDS011;8419;52.358;9.752;2022-10-22T08:35:40;4.32;;;3.60;;
16612;SDS011;8419;52.358;9.752;2022-10-22T08:38:30;6.15;;;3.50;;
16612;SDS011;8419;52.358;9.752;2022-10-22T08:41:16;6.15;;;3.90;;
16612;SDS011;8419;52.358;9.752;2022-10-22T08:44:16;5.43;;;3.72;;
16612;SDS011;8419;52.358;9.752;2022-10-22T08:47:19;4.32;;;3.70;;
16612;SDS011;8419;52.358;9.752;2022-10-22T08:50:21;5.82;;;4.00;;
16612;SDS011;8419;52.358;9.752;2022-10-22T08:53:15;5.15;;;3.33;;
16612;SDS011;8419;52.358;9.752;2022-10-22T08:56:03;4.20;;;3.30;;
16612;SDS011;8419;52.358;9.752;2022-10-22T08:58:51;4.07;;;3.45;;
16612;SDS011;8419;52.358;9.752;2022-10-22T09:01:46;7.30;;;4.15;;
16612;SDS011;8419;52.358;9.752;2022-10-22T09:04:36;5.47;;;3.50;;
16612;SDS011;8419;52.358;9.752;2022-10-22T09:07:28;4.00;;;2.90;;
16612;SDS011;8419;52.358;9.752;2022-10-22T09:10:14;8.00;;;3.97;;
16612;SDS011;8419;52.358;9.752;2022-10-22T09:13:01;4.10;;;3.12;;
16612;SDS011;8419;52.358;9.752;2022-10-22T09:15:48;4.50;;;3.10;;
16612;SDS011;8419;52.358;9.752;2022-10-22T09:18:39;4.75;;;2.22;;
16612;SDS011;8419;52.358;9.752;2022-10-22T09:21:35;4.55;;;2.17;;
16612;SDS011;8419;52.358;9.752;2022-10-22T09:24:30;3.53;;;2.58;;
16612;SDS011;8419;52.358;9.752;2022-10-22T09:27:21;4.78;;;2.42;;
16612;SDS011;8419;52.358;9.752;2022-10-22T09:30:13;4.70;;;2.72;;
16612;SDS011;8419;52.358;9.752;2022-10-22T09:33:05;7.53;;;1.80;;
16612;SDS011;8419;52.358;9.752;2022-10-22T09:35:56;2.75;;;1.90;;
16612;SDS011;8419;52.358;9.752;2022-10-22T09:38:47;2.37;;;1.80;;
16612;SDS011;8419;52.358;9.752;2022-10-22T09:41:34;2.70;;;1.90;;
16612;SDS011;8419;52.358;9.752;2022-10-22T09:44:20;3.10;;;1.67;;
16612;SDS011;8419;52.358;9.752;2022-10-22T09:47:06;3.30;;;2.35;;
16612;SDS011;8419;52.358;9.752;2022-10-22T09:50:19;5.25;;;2.28;;
16612;SDS011;8419;52.358;9.752;2022-10-22T09:53:12;5.37;;;2.05;;
16612;SDS011;8419;52.358;9.752;2022-10-22T09:56:06;4.87;;;2.12;;
16612;SDS011;8419;52.358;9.752;2022-10-22T09:58:55;4.37;;;2.15;;
16612;SDS011;8419;52.358;9.752;2022-10-22T10:01:42;4.00;;;2.25;;
16612;SDS011;8419;52.358;9.752;2022-10-22T10:04:29;4.18;;;2.00;;
16612;SDS011;8419;52.358;9.752;2022-10-22T10:07:21;4.28;;;2.45;;
16612;SDS011;8419;52.358;9.752;2022-10-22T10:10:15;2.80;;;2.20;;
16612;SDS011;8419;52.358;9.752;2022-10-22T10:13:08;3.92;;;2.00;;
16612;SDS011;8419;52.358;9.752;2022-10-22T10:16:03;2.90;;;2.10;;
16612;SDS011;8419;52.358;9.752;2022-10-22T10:19:03;3.65;;;1.90;;
16612;SDS011;8419;52.358;9.752;2022-10-22T10:22:01;2.75;;;2.22;;
16612;SDS011;8419;52.358;9.752;2022-10-22T10:24:58;2.60;;;1.62;;
16612;SDS011;8419;52.358;9.752;2022-10-22T10:27:57;5.03;;;2.03;;
16612;SDS011;8419;52.358;9.752;2022-10-22T10:30:56;3.03;;;2.10;;
16612;SDS011;8419;52.358;9.752;2022-10-22T10:33:52;6.25;;;2.20;;
16612;SDS011;8419;52.358;9.752;2022-10-22T10:36:50;5.55;;;2.33;;
16612;SDS011;8419;52.358;9.752;2022-10-22T10:39:43;5.25;;;2.20;;
16612;SDS011;8419;52.358;9.752;2022-10-22T10:42:42;4.20;;;2.08;;
16612;SDS011;8419;52.358;9.752;2022-10-22T10:45:36;1.80;;;1.58;;
16612;SDS011;8419;52.358;9.752;2022-10-22T10:48:37;4.30;;;1.95;;
16612;SDS011;8419;52.358;9.752;2022-10-22T10:51:42;2.45;;;1.80;;
16612;SDS011;8419;52.358;9.752;2022-10-22T10:54:37;3.22;;;2.05;;
16612;SDS011;8419;52.358;9.752;2022-10-22T10:57:31;5.70;;;2.10;;
16612;SDS011;8419;52.358;9.752;2022-10-22T11:00:23;2.58;;;1.60;;
16612;SDS011;8419;52.358;9.752;2022-10-22T11:03:16;4.43;;;2.40;;
16612;SDS011;8419;52.358;9.752;2022-10-22T11:06:36;3.75;;;2.33;;
16612;SDS011;8419;52.358;9.752;2022-10-22T11:09:26;4.60;;;2.30;;
16612;SDS011;8419;52.358;9.752;2022-10-22T11:12:16;3.28;;;1.95;;
16612;SDS011;8419;52.358;9.752;2022-10-22T11:15:08;3.22;;;2.00;;
16612;SDS011;8419;52.358;9.752;2022-10-22T11:18:02;3.00;;;1.80;;
16612;SDS011;8419;52.358;9.752;2022-10-22T11:21:02;6.05;;;2.12;;
16612;SDS011;8419;52.358;9.752;2022-10-22T11:23:55;5.78;;;2.00;;
16612;SDS011;8419;52.358;9.752;2022-10-22T11:26:53;2.95;;;1.90;;
16612;SDS011;8419;52.358;9.752;2022-10-22T11:29:45;6.03;;;1.92;;
16612;SDS011;8419;52.358;9.752;2022-10-22T11:32:35;4.78;;;2.15;;
16612;SDS011;8419;52.358;9.752;2022-10-22T11:35:23;2.62;;;1.70;;
16612;SDS011;8419;52.358;9.752;2022-10-22T11:38:13;4.50;;;1.55;;
16612;SDS011;8419;52.358;9.752;2022-10-22T11:41:01;6.07;;;1.87;;
16612;SDS011;8419;52.358;9.752;2022-10-22T11:44:07;3.33;;;1.87;;
16612;SDS011;8419;52.358;9.752;2022-10-22T11:46:57;5.28;;;1.87;;
16612;SDS011;8419;52.358;9.752;2022-10-22T11:49:58;3.65;;;1.50;;
16612;SDS011;8419;52.358;9.752;2022-10-22T11:53:01;0.80;;;0.75;;
16612;SDS011;8419;52.358;9.752;2022-10-22T11:55:52;5.00;;;1.50;;
16612;SDS011;8419;52.358;9.752;2022-10-22T11:58:41;3.83;;;1.60;;
16612;SDS011;8419;52.358;9.752;2022-10-22T12:01:39;7.03;;;1.83;;
16612;SDS011;8419;52.358;9.752;2022-10-22T12:04:39;2.12;;;1.20;;
16612;SDS011;8419;52.358;9.752;2022-10-22T12:07:31;3.62;;;1.55;;
16612;SDS011;8419;52.358;9.752;2022-10-22T12:10:19;3.65;;;1.48;;
16612;SDS011;8419;52.358;9.752;2022-10-22T12:13:12;4.40;;;1.45;;
16612;SDS011;8419;52.358;9.752;2022-10-22T12:16:07;3.40;;;1.37;;
16612;SDS011;8419;52.358;9.752;2022-10-22T12:19:00;4.90;;;1.58;;
16612;SDS011;8419;52.358;9.752;2022-10-22T12:21:50;2.15;;;1.42;;
16612;SDS011;8419;52.358;9.752;2022-10-22T12:24:39;3.62;;;1.25;;
16612;SDS011;8419;52.358;9.752;2022-10-22T12:27:32;4.32;;;1.45;;
16612;SDS011;8419;52.358;9.752;2022-10-22T12:30:19;1.55;;;1.20;;
16612;SDS011;8419;52.358;9.752;2022-10-22T12:33:15;3.67;;;1.30;;
16612;SDS011;8419;52.358;9.752;2022-10-22T12:36:04;2.08;;;1.00;;
16612;SDS011;8419;52.358;9.752;2022-10-22T12:38:51;3.62;;;1.48;;
16612;SDS011;8419;52.358;9.752;2022-10-22T12:41:37;5.07;;;1.65;;
16612;SDS011;8419;52.358;9.752;2022-10-22T12:44:24;3.75;;;1.25;;
16612;SDS011;8419;52.358;9.752;2022-10-22T12:47:12;3.58;;;1.35;;
16612;SDS011;8419;52.358;9.752;2022-10-22T12:50:13;5.53;;;1.30;;
16612;SDS011;8419;52.358;9.752;2022-10-22T12:53:01;4.28;;;1.20;;
16612;SDS011;8419;52.358;9.752;2022-10-22T12:55:49;6.22;;;1.10;;
16612;SDS011;8419;52.358;9.752;2022-10-22T12:58:38;4.80;;;1.98;;
16612;SDS011;8419;52.358;9.752;2022-10-22T13:01:26;4.55;;;1.50;;
16612;SDS011;8419;52.358;9.752;2022-10-22T13:04:29;6.37;;;1.52;;
16612;SDS011;8419;52.358;9.752;2022-10-22T13:07:20;4.97;;;1.58;;
16612;SDS011;8419;52.358;9.752;2022-10-22T13:10:13;5.03;;;1.45;;
16612;SDS011;8419;52.358;9.752;2022-10-22T13:13:03;4.47;;;1.40;;
16612;SDS011;8419;52.358;9.752;2022-10-22T13:15:53;2.95;;;1.30;;
16612;SDS011;8419;52.358;9.752;2022-10-22T13:18:40;3.08;;;1.37;;
16612;SDS011;8419;52.358;9.752;2022-10-22T13:21:31;4.70;;;1.52;;
16612;SDS011;8419;52.358;9.752;2022-10-22T13:24:19;4.18;;;1.50;;
16612;SDS011;8419;52.358;9.752;2022-10-22T13:27:10;4.25;;;1.17;;
16612;SDS011;8419;52.358;9.752;2022-10-22T13:29:55;3.65;;;1.30;;
16612;SDS011;8419;52.358;9.752;2022-10-22T13:32:48;4.70;;;1.42;;
16612;SDS011;8419;52.358;9.752;2022-10-22T13:35:38;10.93;;;2.17;;
16612;SDS011;8419;52.358;9.752;2022-10-22T13:38:27;4.07;;;1.77;;
16612;SDS011;8419;52.358;9.752;2022-10-22T13:41:26;5.00;;;1.80;;
16612;SDS011;8419;52.358;9.752;2022-10-22T13:44:17;3.17;;;2.12;;
16612;SDS011;8419;52.358;9.752;2022-10-22T13:47:07;4.28;;;1.75;;
16612;SDS011;8419;52.358;9.752;2022-10-22T13:50:14;8.95;;;5.15;;
16612;SDS011;8419;52.358;9.752;2022-10-22T13:53:04;4.20;;;2.00;;
16612;SDS011;8419;52.358;9.752;2022-10-22T13:55:51;5.45;;;2.22;;
16612;SDS011;8419;52.358;9.752;2022-10-22T13:58:37;6.47;;;2.10;;
16612;SDS011;8419;52.358;9.752;2022-10-22T14:01:23;3.83;;;1.58;;
16612;SDS011;8419;52.358;9.752;2022-10-22T14:04:11;5.53;;;1.75;;
16612;SDS011;8419;52.358;9.752;2022-10-22T14:07:00;3.25;;;1.85;;
16612;SDS011;8419;52.358;9.752;2022-10-22T14:09:46;5.65;;;1.50;;
16612;SDS011;8419;52.358;9.752;2022-10-22T14:12:31;5.35;;;1.77;;
16612;SDS011;8419;52.358;9.752;2022-10-22T14:15:18;4.85;;;1.87;;
16612;SDS011;8419;52.358;9.752;2022-10-22T14:18:05;4.10;;;1.60;;
16612;SDS011;8419;52.358;9.752;2022-10-22T14:20:55;3.33;;;1.33;;
16612;SDS011;8419;52.358;9.752;2022-10-22T14:23:43;6.82;;;1.60;;
16612;SDS011;8419;52.358;9.752;2022-10-22T14:26:31;3.47;;;1.60;;
16612;SDS011;8419;52.358;9.752;2022-10-22T14:29:18;1.40;;;1.30;;
16612;SDS011;8419;52.358;9.752;2022-10-22T14:32:08;3.58;;;1.50;;
16612;SDS011;8419;52.358;9.752;2022-10-22T14:34:56;5.03;;;1.70;;
16612;SDS011;8419;52.358;9.752;2022-10-22T14:37:43;4.12;;;1.50;;
16612;SDS011;8419;52.358;9.752;2022-10-22T14:40:28;1.48;;;1.10;;
16612;SDS011;8419;52.358;9.752;2022-10-22T14:43:18;2.90;;;1.58;;
16612;SDS011;8419;52.358;9.752;2022-10-22T14:46:06;6.10;;;1.73;;
16612;SDS011;8419;52.358;9.752;2022-10-22T14:48:52;3.67;;;1.40;;
16612;SDS011;8419;52.358;9.752;2022-10-22T14:51:37;6.00;;;2.00;;
16612;SDS011;8419;52.358;9.752;2022-10-22T14:54:23;9.80;;;1.90;;
16612;SDS011;8419;52.358;9.752;2022-10-22T14:57:10;4.05;;;1.92;;
16612;SDS011;8419;52.358;9.752;2022-10-22T14:59:57;3.47;;;1.52;;
16612;SDS011;8419;52.358;9.752;2022-10-22T15:02:43;8.18;;;1.87;;
16612;SDS011;8419;52.358;9.752;2022-10-22T15:05:31;5.10;;;1.80;;
16612;SDS011;8419;52.358;9.752;2022-10-22T15:08:19;5.95;;;1.98;;
16612;SDS011;8419;52.358;9.752;2022-10-22T15:11:06;4.87;;;1.62;;
16612;SDS011;8419;52.358;9.752;2022-10-22T15:14:29;2.47;;;1.60;;
16612;SDS011;8419;52.358;9.752;2022-10-22T15:17:14;3.00;;;1.10;;
16612;SDS011;8419;52.358;9.752;2022-10-22T15:20:01;4.12;;;1.25;;
16612;SDS011;8419;52.358;9.752;2022-10-22T15:22:48;8.55;;;1.80;;
16612;SDS011;8419;52.358;9.752;2022-10-22T15:25:34;2.03;;;1.27;;
16612;SDS011;8419;52.358;9.752;2022-10-22T15:28:20;4.62;;;1.70;;
16612;SDS011;8419;52.358;9.752;2022-10-22T15:31:06;5.32;;;1.45;;
16612;SDS011;8419;52.358;9.752;2022-10-22T15:33:55;2.80;;;1.42;;
16612;SDS011;8419;52.358;9.752;2022-10-22T15:36:41;3.30;;;1.50;;
16612;SDS011;8419;52.358;9.752;2022-10-22T15:39:27;3.10;;;1.58;;
16612;SDS011;8419;52.358;9.752;2022-10-22T15:42:13;0.50;;;0.40;;
16612;SDS011;8419;52.358;9.752;2022-10-22T15:44:59;12.20;;;1.30;;
16612;SDS011;8419;52.358;9.752;2022-10-22T15:47:46;2.35;;;1.20;;
16612;SDS011;8419;52.358;9.752;2022-10-22T15:50:36;3.08;;;1.35;;
16612;SDS011;8419;52.358;9.752;2022-10-22T15:53:22;4.93;;;1.42;;
16612;SDS011;8419;52.358;9.752;2022-10-22T15:56:10;2.85;;;1.30;;
16612;SDS011;8419;52.358;9.752;2022-10-22T15:58:56;4.22;;;1.42;;
16612;SDS011;8419;52.358;9.752;2022-10-22T16:01:43;2.05;;;1.30;;
16612;SDS011;8419;52.358;9.752;2022-10-22T16:04:29;2.58;;;1.25;;
16612;SDS011;8419;52.358;9.752;2022-10-22T16:07:14;5.32;;;1.30;;
16612;SDS011;8419;52.358;9.752;2022-10-22T16:10:00;3.17;;;1.30;;
16612;SDS011;8419;52.358;9.752;2022-10-22T16:12:46;5.28;;;1.37;;
16612;SDS011;8419;52.358;9.752;2022-10-22T16:15:35;2.83;;;1.30;;
16612;SDS011;8419;52.358;9.752;2022-10-22T16:18:21;3.67;;;1.40;;
16612;SDS011;8419;52.358;9.752;2022-10-22T16:21:11;1.12;;;1.02;;
16612;SDS011;8419;52.358;9.752;2022-10-22T16:23:59;1.77;;;1.05;;
16612;SDS011;8419;52.358;9.752;2022-10-22T16:26:45;2.42;;;1.15;;
16612;SDS011;8419;52.358;9.752;2022-10-22T16:29:31;3.47;;;1.20;;
16612;SDS011;8419;52.358;9.752;2022-10-22T16:32:17;4.03;;;1.05;;
16612;SDS011;8419;52.358;9.752;2022-10-22T16:35:03;3.97;;;1.40;;
16612;SDS011;8419;52.358;9.752;2022-10-22T16:37:52;1.95;;;1.10;;
16612;SDS011;8419;52.358;9.752;2022-10-22T16:40:37;1.92;;;1.33;;
16612;SDS011;8419;52.358;9.752;2022-10-22T16:43:23;1.08;;;0.98;;
16612;SDS011;8419;52.358;9.752;2022-10-22T16:46:09;6.07;;;2.08;;
16612;SDS011;8419;52.358;9.752;2022-10-22T16:48:57;1.98;;;1.23;;
16612;SDS011;8419;52.358;9.752;2022-10-22T16:51:43;3.58;;;1.70;;
16612;SDS011;8419;52.358;9.752;2022-10-22T16:54:29;2.67;;;1.30;;
16612;SDS011;8419;52.358;9.752;2022-10-22T16:57:17;6.68;;;1.70;;
16612;SDS011;8419;52.358;9.752;2022-10-22T17:00:03;4.22;;;1.55;;
16612;SDS011;8419;52.358;9.752;2022-10-22T17:02:50;3.72;;;1.60;;
16612;SDS011;8419;52.358;9.752;2022-10-22T17:05:37;3.05;;;1.50;;
16612;SDS011;8419;52.358;9.752;2022-10-22T17:08:22;3.80;;;1.20;;
16612;SDS011;8419;52.358;9.752;2022-10-22T17:11:09;3.47;;;1.65;;
16612;SDS011;8419;52.358;9.752;2022-10-22T17:13:56;2.28;;;1.60;;